createdAt,value
2022-09-04T00:00:13.610Z,32.63
2022-09-04T00:02:48.982Z,31.33
2022-09-04T00:05:28.615Z,34.08
2022-09-04T00:07:55.087Z,34.60
2022-09-04T00:10:31.002Z,35.25
2022-09-04T00:13:04.572Z,35.17
2022-09-04T00:15:34.877Z,33.88
2022-09-04T00:18:07.356Z,39.00
2022-09-04T00:20:45.879Z,35.90
2022-09-04T00:23:12.198Z,37.33
2022-09-04T00:25:47.780Z,41.58
2022-09-04T00:28:31.985Z,41.10
2022-09-04T00:31:13.841Z,41.17
2022-09-04T00:34:03.026Z,42.10
2022-09-04T00:36:29.707Z,48.70
2022-09-04T00:38:58.418Z,45.30
2022-09-04T00:41:24.667Z,48.60
2022-09-04T00:44:09.951Z,50.83
2022-09-04T00:49:03.601Z,54.30
2022-09-04T00:51:39.555Z,59.25
2022-09-04T00:54:24.499Z,54.75
2022-09-04T00:57:06.529Z,53.15
2022-09-04T00:59:32.731Z,51.38
2022-09-04T01:02:05.184Z,46.95
2022-09-04T01:04:48.529Z,43.75
2022-09-04T01:07:33.702Z,47.88
2022-09-04T01:12:42.550Z,43.97
2022-09-04T01:15:18.757Z,44.78
2022-09-04T01:18:03.324Z,44.05
2022-09-04T01:20:39.288Z,50.97
2022-09-04T01:23:24.158Z,48.13
2022-09-04T01:25:56.662Z,48.25
2022-09-04T01:28:41.595Z,45.38
2022-09-04T01:31:08.252Z,44.92
2022-09-04T01:33:38.907Z,46.75
2022-09-04T01:36:05.201Z,51.83
2022-09-04T01:38:35.374Z,52.30
2022-09-04T01:41:16.506Z,44.22
2022-09-04T01:43:43.002Z,50.20
2022-09-04T01:46:22.931Z,51.05
2022-09-04T01:48:49.213Z,40.22
2022-09-04T01:51:18.463Z,41.17
2022-09-04T01:53:46.064Z,37.38
2022-09-04T01:56:25.766Z,31.13
2022-09-04T01:58:56.804Z,31.85
2022-09-04T02:01:39.528Z,26.40
2022-09-04T02:04:18.198Z,27.95
2022-09-04T02:07:07.941Z,27.73
2022-09-04T02:09:37.885Z,26.45
2022-09-04T02:12:22.854Z,28.00
2022-09-04T02:14:53.971Z,31.20
2022-09-04T02:17:26.600Z,34.67
2022-09-04T02:20:01.800Z,36.10
2022-09-04T02:22:28.032Z,38.15
2022-09-04T02:24:54.287Z,36.45
2022-09-04T02:27:23.569Z,41.65
2022-09-04T02:29:55.463Z,41.17
2022-09-04T02:32:27.541Z,37.10
2022-09-04T02:34:59.592Z,38.17
2022-09-04T02:37:25.830Z,36.00
2022-09-04T02:40:00.717Z,31.48
2022-09-04T02:42:50.304Z,27.60
2022-09-04T02:45:21.487Z,26.63
2022-09-04T02:48:13.692Z,24.90
2022-09-04T02:50:53.247Z,21.48
2022-09-04T02:53:22.498Z,19.15
2022-09-04T02:56:09.413Z,17.92
2022-09-04T02:58:52.763Z,18.58
2022-09-04T03:01:25.516Z,17.63
2022-09-04T03:04:12.097Z,16.10
2022-09-04T03:06:48.433Z,17.38
2022-09-04T03:09:40.841Z,14.95
2022-09-04T03:12:27.045Z,17.10
2022-09-04T03:15:06.969Z,17.92
2022-09-04T03:17:33.190Z,17.63
2022-09-04T03:20:02.380Z,17.52
2022-09-04T03:22:48.870Z,17.67
2022-09-04T03:25:33.924Z,18.45
2022-09-04T03:28:00.638Z,22.73
2022-09-04T03:30:27.952Z,16.08
2022-09-04T03:32:59.394Z,17.30
2022-09-04T03:35:31.921Z,15.82
2022-09-04T03:37:58.146Z,16.10
2022-09-04T03:40:30.697Z,17.40
2022-09-04T03:43:15.406Z,14.88
2022-09-04T03:45:54.826Z,16.77
2022-09-04T03:48:32.089Z,15.98
2022-09-04T03:51:10.788Z,17.50
2022-09-04T03:53:41.525Z,13.55
2022-09-04T03:56:20.257Z,15.48
2022-09-04T03:58:54.547Z,15.75
2022-09-04T04:01:24.828Z,16.92
2022-09-04T04:04:10.276Z,15.90
2022-09-04T04:06:42.320Z,16.70
2022-09-04T04:09:14.619Z,18.77
2022-09-04T04:12:00.304Z,17.40
2022-09-04T04:14:37.453Z,17.83
2022-09-04T04:17:06.434Z,17.63
2022-09-04T04:19:45.178Z,17.38
2022-09-04T04:22:23.552Z,19.23
2022-09-04T04:24:49.815Z,18.92
2022-09-04T04:27:16.023Z,19.83
2022-09-04T04:30:20.643Z,25.92
2022-09-04T04:32:58.832Z,22.63
2022-09-04T04:35:27.904Z,23.20
2022-09-04T04:37:59.940Z,24.00
2022-09-04T04:40:45.209Z,29.13
2022-09-04T04:45:50.278Z,31.33
2022-09-04T04:48:24.089Z,29.88
2022-09-04T04:51:18.626Z,27.90
2022-09-04T04:53:47.750Z,31.02
2022-09-04T04:56:26.331Z,26.80
2022-09-04T04:58:57.575Z,25.95
2022-09-04T05:01:24.069Z,25.65
2022-09-04T05:03:50.797Z,25.67
2022-09-04T05:06:31.042Z,28.10
2022-09-04T05:09:15.940Z,23.45
2022-09-04T05:11:50.901Z,28.38
2022-09-04T05:14:29.164Z,24.58
2022-09-04T05:16:59.460Z,27.55
2022-09-04T05:19:40.775Z,23.58
2022-09-04T05:22:22.373Z,24.15
2022-09-04T05:25:02.407Z,25.58
2022-09-04T05:27:51.506Z,25.58
2022-09-04T05:30:32.956Z,24.17
2022-09-04T05:33:07.630Z,22.52
2022-09-04T05:35:36.663Z,20.02
2022-09-04T05:38:10.783Z,21.08
2022-09-04T05:40:55.753Z,19.15
2022-09-04T05:43:33.273Z,16.45
2022-09-04T05:46:08.920Z,14.95
2022-09-04T05:48:54.332Z,14.38
2022-09-04T05:51:39.550Z,14.55
2022-09-04T05:56:32.160Z,14.23
2022-09-04T05:59:04.438Z,15.38
2022-09-04T06:01:51.634Z,13.90
2022-09-04T06:04:21.603Z,13.43
2022-09-04T06:06:58.486Z,13.65
2022-09-04T06:09:28.193Z,13.88
2022-09-04T06:12:09.490Z,13.45
2022-09-04T06:14:44.835Z,14.02
2022-09-04T06:17:17.252Z,13.00
2022-09-04T06:20:01.610Z,17.48
2022-09-04T06:22:31.035Z,14.67
2022-09-04T06:24:57.305Z,14.55
2022-09-04T06:27:42.382Z,15.52
2022-09-04T06:30:08.762Z,13.55
2022-09-04T06:32:53.938Z,15.52
2022-09-04T06:35:52.613Z,14.73
2022-09-04T06:38:33.650Z,13.27
2022-09-04T06:41:05.864Z,16.73
2022-09-04T06:43:32.092Z,13.90
2022-09-04T06:46:02.967Z,15.80
2022-09-04T06:48:29.332Z,16.45
2022-09-04T06:50:56.216Z,14.32
2022-09-04T06:53:38.717Z,15.07
2022-09-04T06:56:23.158Z,14.52
2022-09-04T06:58:49.504Z,15.60
2022-09-04T07:01:26.153Z,16.00
2022-09-04T07:04:01.329Z,15.38
2022-09-04T07:06:46.235Z,13.65
2022-09-04T07:09:26.095Z,14.45
2022-09-04T07:11:58.657Z,13.65
2022-09-04T07:14:25.013Z,15.45
2022-09-04T07:17:10.158Z,16.67
2022-09-04T07:19:42.379Z,14.00
2022-09-04T07:22:17.802Z,13.00
2022-09-04T07:24:44.072Z,12.73
2022-09-04T07:27:15.655Z,13.82
2022-09-04T07:29:47.477Z,12.55
2022-09-04T07:32:24.912Z,13.48
2022-09-04T07:34:57.589Z,11.77
2022-09-04T07:37:50.279Z,12.60
2022-09-04T07:40:19.931Z,12.23
2022-09-04T07:42:52.313Z,15.98
2022-09-04T07:45:22.459Z,11.20
2022-09-04T07:48:04.208Z,11.85
2022-09-04T07:50:35.974Z,10.73
2022-09-04T07:53:20.291Z,10.00
2022-09-04T07:55:48.293Z,9.82
2022-09-04T07:58:21.779Z,10.48
2022-09-04T08:00:54.487Z,8.68
2022-09-04T08:03:49.105Z,9.07
2022-09-04T08:06:20.962Z,7.40
2022-09-04T08:08:53.303Z,8.50
2022-09-04T08:11:19.560Z,9.25
2022-09-04T08:13:54.757Z,8.07
2022-09-04T08:16:28.611Z,7.55
2022-09-04T08:19:05.404Z,7.38
2022-09-04T08:21:36.438Z,9.82
2022-09-04T08:24:12.658Z,6.00
2022-09-04T08:26:58.633Z,8.23
2022-09-04T08:29:48.310Z,6.90
2022-09-04T08:32:20.572Z,8.00
2022-09-04T08:34:50.355Z,7.20
2022-09-04T08:37:20.408Z,7.93
2022-09-04T08:40:02.575Z,6.40
2022-09-04T08:42:35.456Z,6.88
2022-09-04T08:45:20.509Z,6.75
2022-09-04T08:48:06.425Z,8.45
2022-09-04T08:50:38.357Z,5.45
2022-09-04T08:53:13.514Z,7.45
2022-09-04T08:55:58.526Z,6.72
2022-09-04T08:58:34.630Z,5.13
2022-09-04T09:01:07.094Z,9.77
2022-09-04T09:03:47.844Z,8.60
2022-09-04T09:06:14.312Z,4.20
2022-09-04T09:08:59.410Z,4.78
2022-09-04T09:14:10.355Z,6.30
2022-09-04T09:16:43.012Z,6.22
2022-09-04T09:19:12.540Z,6.57
2022-09-04T09:21:42.330Z,4.13
2022-09-04T09:24:21.418Z,6.18
2022-09-04T09:26:47.692Z,4.07
2022-09-04T09:29:26.173Z,5.47
2022-09-04T09:32:11.236Z,8.45
2022-09-04T09:37:13.703Z,4.75
2022-09-04T09:39:48.764Z,2.78
2022-09-04T09:42:20.863Z,4.82
2022-09-04T09:45:06.155Z,7.20
2022-09-04T09:47:51.820Z,3.97
2022-09-04T09:50:45.973Z,6.65
2022-09-04T09:53:24.661Z,6.13
2022-09-04T09:56:14.053Z,5.30
2022-09-04T09:58:49.141Z,4.13
2022-09-04T10:01:24.642Z,5.45
2022-09-04T10:04:12.948Z,4.97
2022-09-04T10:06:51.760Z,5.97
2022-09-04T10:09:37.611Z,2.70
2022-09-04T10:12:18.955Z,3.80
2022-09-04T10:14:45.203Z,3.78
2022-09-04T10:17:22.530Z,1.85
2022-09-04T10:19:54.562Z,6.00
2022-09-04T10:22:39.499Z,2.00
2022-09-04T10:25:24.628Z,3.65
2022-09-04T10:30:18.638Z,2.25
2022-09-04T10:32:58.499Z,2.05
2022-09-04T10:35:43.683Z,3.22
2022-09-04T10:38:16.125Z,2.38
2022-09-04T10:40:59.188Z,2.00
2022-09-04T10:43:44.111Z,3.30
2022-09-04T10:46:29.352Z,2.47
2022-09-04T10:49:18.864Z,3.10
2022-09-04T10:51:49.505Z,3.80
2022-09-04T10:54:30.262Z,3.30
2022-09-04T10:56:56.481Z,4.03
2022-09-04T10:59:46.674Z,1.80
2022-09-04T11:02:12.950Z,4.72
2022-09-04T11:04:52.539Z,4.35
2022-09-04T11:07:22.852Z,2.17
2022-09-04T11:10:10.894Z,1.50
2022-09-04T11:12:37.125Z,3.50
2022-09-04T11:15:26.312Z,3.13
2022-09-04T11:18:22.311Z,3.55
2022-09-04T11:20:48.601Z,6.13
2022-09-04T11:23:38.227Z,2.17
2022-09-04T11:26:26.313Z,1.83
2022-09-04T11:28:56.928Z,2.17
2022-09-04T11:31:23.205Z,1.88
2022-09-04T11:34:08.526Z,5.53
2022-09-04T11:36:52.868Z,4.85
2022-09-04T11:39:30.470Z,3.53
2022-09-04T11:42:08.967Z,4.25
2022-09-04T11:45:00.422Z,4.40
2022-09-04T11:47:36.498Z,3.15
2022-09-04T11:50:02.752Z,4.45
2022-09-04T11:52:47.454Z,2.83
2022-09-04T11:55:19.582Z,4.18
2022-09-04T11:58:15.504Z,1.60
2022-09-04T12:01:00.323Z,1.52
2022-09-04T12:03:32.752Z,2.75
2022-09-04T12:06:05.195Z,2.63
2022-09-04T12:08:35.703Z,3.20
2022-09-04T12:11:20.721Z,1.55
2022-09-04T12:16:16.031Z,1.85
2022-09-04T12:19:00.921Z,1.38
2022-09-04T12:21:27.149Z,3.55
2022-09-04T12:23:53.454Z,1.60
2022-09-04T12:26:22.695Z,4.65
2022-09-04T12:29:07.586Z,2.33
2022-09-04T12:31:40.115Z,1.27
2022-09-04T12:34:06.365Z,2.85
2022-09-04T12:36:42.149Z,3.70
2022-09-04T12:39:16.018Z,5.53
2022-09-04T12:42:00.759Z,4.13
2022-09-04T12:44:45.526Z,2.88
2022-09-04T12:47:14.758Z,1.88
2022-09-04T12:49:49.230Z,3.78
2022-09-04T12:52:21.426Z,4.05
2022-09-04T12:55:05.421Z,4.13
2022-09-04T12:57:37.013Z,4.55
2022-09-04T13:00:05.846Z,2.40
2022-09-04T13:02:50.741Z,3.88
2022-09-04T13:05:17.206Z,1.58
2022-09-04T13:07:55.578Z,2.25
2022-09-04T13:10:32.789Z,3.67
2022-09-04T13:13:25.576Z,2.03
2022-09-04T13:16:04.319Z,6.63
2022-09-04T13:18:34.814Z,1.77
2022-09-04T13:21:19.619Z,3.50
2022-09-04T13:23:46.590Z,1.65
2022-09-04T13:26:31.605Z,4.35
2022-09-04T13:29:08.367Z,4.15
2022-09-04T13:32:03.883Z,1.65
2022-09-04T13:34:50.402Z,3.58
2022-09-04T13:37:23.210Z,2.45
2022-09-04T13:40:00.979Z,2.03
2022-09-04T13:42:48.611Z,3.95
2022-09-04T13:45:19.329Z,2.35
2022-09-04T13:47:59.261Z,2.15
2022-09-04T13:50:29.438Z,3.63
2022-09-04T13:53:02.688Z,2.17
2022-09-04T13:55:28.927Z,2.53
2022-09-04T13:58:01.634Z,3.50
2022-09-04T14:00:30.143Z,2.42
2022-09-04T14:03:00.171Z,3.42
2022-09-04T14:05:28.493Z,3.20
2022-09-04T14:07:59.580Z,2.42
2022-09-04T14:10:33.492Z,4.45
2022-09-04T14:13:08.676Z,2.90
2022-09-04T14:15:44.576Z,2.85
2022-09-04T14:18:29.634Z,2.10
2022-09-04T14:21:01.285Z,2.28
2022-09-04T14:23:42.853Z,4.38
2022-09-04T14:26:20.061Z,3.65
2022-09-04T14:28:50.245Z,3.13
2022-09-04T14:31:34.091Z,2.60
2022-09-04T14:34:11.189Z,4.30
2022-09-04T14:36:49.660Z,4.28
2022-09-04T14:39:18.811Z,3.72
2022-09-04T14:41:54.295Z,2.42
2022-09-04T14:44:20.742Z,2.78
2022-09-04T14:46:56.459Z,7.85
2022-09-04T14:49:24.329Z,2.78
2022-09-04T14:51:56.452Z,2.75
2022-09-04T14:54:28.485Z,1.90
2022-09-04T14:57:00.897Z,3.88
2022-09-04T14:59:51.513Z,2.53
2022-09-04T15:02:28.173Z,5.63
2022-09-04T15:05:00.181Z,4.25
2022-09-04T15:07:29.592Z,4.93
2022-09-04T15:10:06.597Z,3.17
2022-09-04T15:12:36.655Z,1.73
2022-09-04T15:15:09.065Z,2.38
2022-09-04T15:17:38.402Z,2.58
2022-09-04T15:20:35.971Z,2.55
2022-09-04T15:23:07.289Z,1.77
2022-09-04T15:25:58.862Z,2.55
2022-09-04T15:28:34.430Z,2.88
2022-09-04T15:31:04.281Z,3.78
2022-09-04T15:33:30.763Z,2.50
2022-09-04T15:36:08.770Z,2.08
2022-09-04T15:38:37.415Z,5.68
2022-09-04T15:41:16.718Z,2.08
2022-09-04T15:43:46.796Z,3.33
2022-09-04T15:46:16.235Z,2.35
2022-09-04T15:48:53.139Z,1.88
2022-09-04T15:51:38.187Z,2.38
2022-09-04T15:54:10.723Z,4.47
2022-09-04T15:56:52.058Z,2.30
2022-09-04T15:59:38.703Z,2.15
2022-09-04T16:02:43.821Z,1.98
2022-09-04T16:05:44.668Z,4.45
2022-09-04T16:08:10.936Z,2.47
2022-09-04T16:10:57.266Z,2.10
2022-09-04T16:13:29.482Z,3.40
2022-09-04T16:16:08.628Z,3.22
2022-09-04T16:18:37.671Z,2.45
2022-09-04T16:21:40.473Z,2.63
2022-09-04T16:24:08.930Z,3.03
2022-09-04T16:26:35.248Z,2.55
2022-09-04T16:29:05.308Z,7.57
2022-09-04T16:31:35.645Z,2.05
2022-09-04T16:34:11.145Z,13.30
2022-09-04T16:36:40.566Z,3.15
2022-09-04T16:39:14.230Z,2.47
2022-09-04T16:41:46.861Z,2.17
2022-09-04T16:44:26.760Z,7.70
2022-09-04T16:47:02.855Z,2.13
2022-09-04T16:49:33.764Z,2.00
2022-09-04T16:52:07.281Z,4.35
2022-09-04T16:54:47.419Z,2.33
2022-09-04T16:57:15.335Z,2.97
2022-09-04T16:59:43.178Z,2.60
2022-09-04T17:02:15.588Z,3.13
2022-09-04T17:04:44.285Z,4.75
2022-09-04T17:07:17.289Z,5.57
2022-09-04T17:09:46.987Z,4.30
2022-09-04T17:12:18.182Z,4.72
2022-09-04T17:14:48.094Z,2.47
2022-09-04T17:17:31.627Z,6.38
2022-09-04T17:20:00.466Z,3.15
2022-09-04T17:28:58.138Z,2.42
2022-09-04T17:29:12.649Z,3.53
2022-09-04T17:29:15.828Z,2.70
2022-09-04T17:31:05.388Z,2.53
2022-09-04T17:38:40.051Z,3.65
2022-09-04T17:40:36.936Z,3.95
2022-09-04T17:40:46.714Z,4.18
2022-09-04T17:43:12.957Z,2.03
2022-09-04T17:45:51.202Z,5.55
2022-09-04T17:48:24.034Z,6.10
2022-09-04T17:50:56.029Z,10.80
2022-09-04T17:53:34.063Z,4.60
2022-09-04T17:56:08.146Z,8.18
2022-09-04T17:58:43.591Z,9.93
2022-09-04T18:01:14.141Z,7.03
2022-09-04T18:04:19.849Z,3.67
2022-09-04T18:06:43.798Z,4.13
2022-09-04T18:09:13.342Z,6.88
2022-09-04T18:11:40.773Z,3.97
2022-09-04T18:14:14.787Z,4.80
2022-09-04T18:17:11.281Z,5.10
2022-09-04T18:19:41.857Z,9.02
2022-09-04T18:22:33.155Z,2.95
2022-09-04T18:25:16.414Z,3.38
2022-09-04T18:27:51.193Z,5.75
2022-09-04T18:37:09.936Z,3.75
2022-09-04T18:37:22.071Z,3.35
2022-09-04T18:37:22.078Z,3.13
2022-09-04T18:39:18.580Z,3.97
2022-09-04T18:49:26.538Z,8.30
2022-09-04T18:50:30.122Z,3.20
2022-09-04T18:50:38.511Z,3.92
2022-09-04T18:51:06.927Z,4.93
2022-09-04T18:53:21.522Z,5.93
2022-09-04T18:55:49.338Z,5.60
2022-09-04T18:58:28.197Z,4.47
2022-09-04T19:00:54.638Z,7.00
2022-09-04T19:03:23.566Z,4.55
2022-09-04T19:05:51.928Z,4.50
2022-09-04T19:08:22.349Z,3.47
2022-09-04T19:10:53.881Z,4.07
2022-09-04T19:13:32.212Z,3.25
2022-09-04T19:16:01.807Z,5.63
2022-09-04T19:18:29.565Z,3.20
2022-09-04T19:21:02.032Z,4.60
2022-09-04T19:23:39.976Z,3.13
2022-09-04T19:26:23.409Z,4.55
2022-09-04T19:28:53.852Z,4.05
2022-09-04T19:31:26.065Z,5.75
2022-09-04T19:34:12.830Z,6.07
2022-09-04T19:36:50.846Z,6.10
2022-09-04T19:46:03.508Z,7.95
2022-09-04T19:46:04.423Z,6.03
2022-09-04T19:46:25.931Z,5.53
2022-09-04T19:47:59.942Z,5.95
2022-09-04T19:53:23.059Z,6.45
2022-09-04T19:53:37.851Z,4.93
2022-09-04T19:56:26.286Z,7.78
2022-09-04T19:58:57.937Z,4.38
2022-09-04T20:01:26.201Z,6.47
2022-09-04T20:03:58.676Z,5.78
2022-09-04T20:06:30.216Z,5.00
2022-09-04T20:09:10.819Z,5.28
2022-09-04T20:11:46.412Z,5.35
2022-09-04T20:14:24.083Z,5.03
2022-09-04T20:16:57.519Z,3.70
2022-09-04T20:19:28.613Z,3.97
2022-09-04T20:21:55.166Z,3.95
2022-09-04T20:24:24.571Z,6.30
2022-09-04T20:26:56.733Z,7.85
2022-09-04T20:29:37.944Z,5.75
2022-09-04T20:32:17.071Z,5.82
2022-09-04T20:34:46.517Z,5.63
2022-09-04T20:37:28.297Z,4.38
2022-09-04T20:40:13.741Z,5.82
2022-09-04T20:42:40.009Z,7.95
2022-09-04T20:48:02.307Z,4.05
2022-09-04T20:52:51.055Z,3.90
2022-09-04T20:52:56.425Z,4.88
2022-09-04T20:53:47.913Z,3.95
2022-09-04T20:56:55.546Z,3.95
2022-09-04T21:03:12.593Z,4.63
2022-09-04T21:03:22.837Z,6.75
2022-09-04T21:05:19.840Z,3.72
2022-09-04T21:10:25.583Z,4.18
2022-09-04T21:13:10.856Z,8.52
2022-09-04T21:15:51.580Z,4.97
2022-09-04T21:18:18.374Z,5.88
2022-09-04T21:21:00.239Z,7.15
2022-09-04T21:23:35.965Z,4.18
2022-09-04T21:26:02.225Z,5.50
2022-09-04T21:28:34.406Z,7.43
2022-09-04T21:31:14.786Z,4.28
2022-09-04T21:33:50.201Z,5.13
2022-09-04T21:36:26.701Z,6.95
2022-09-04T21:38:56.877Z,4.80
2022-09-04T21:41:23.577Z,3.60
2022-09-04T21:43:59.031Z,4.70
2022-09-04T21:46:31.630Z,5.35
2022-09-04T21:49:24.385Z,5.03
2022-09-04T21:52:04.991Z,4.53
2022-09-04T21:55:26.668Z,4.55
2022-09-04T22:02:35.463Z,4.15
2022-09-04T22:02:41.875Z,6.22
2022-09-04T22:03:13.537Z,4.10
2022-09-04T22:05:47.235Z,4.63
2022-09-04T22:13:34.041Z,4.70
2022-09-04T22:13:35.026Z,6.03
2022-09-04T22:14:16.779Z,5.30
2022-09-04T22:17:02.898Z,4.28
2022-09-04T22:19:41.324Z,5.10
2022-09-04T22:22:19.950Z,4.55
2022-09-04T22:24:48.889Z,4.25
2022-09-04T22:27:30.150Z,3.80
2022-09-04T22:30:06.283Z,4.65
2022-09-04T22:32:51.384Z,3.83
2022-09-04T22:35:17.672Z,5.75
2022-09-04T22:37:55.800Z,3.83
2022-09-04T22:40:56.543Z,4.22
2022-09-04T22:43:24.337Z,6.70
2022-09-04T22:46:14.704Z,5.38
2022-09-04T22:49:11.933Z,4.97
2022-09-04T22:51:58.007Z,10.10
2022-09-04T22:54:33.100Z,5.35
2022-09-04T22:57:02.025Z,4.65
2022-09-04T22:59:43.588Z,4.22
2022-09-04T23:02:54.189Z,5.35
2022-09-04T23:05:19.064Z,5.40
2022-09-04T23:13:42.378Z,4.90
2022-09-04T23:13:59.441Z,4.65
2022-09-04T23:14:05.523Z,5.38
2022-09-04T23:16:34.168Z,5.47
2022-09-04T23:24:37.759Z,4.82
2022-09-04T23:26:42.063Z,7.45
2022-09-04T23:26:43.382Z,4.05
2022-09-04T23:28:02.495Z,5.88
2022-09-04T23:30:48.776Z,4.57
2022-09-04T23:33:27.274Z,4.57
2022-09-04T23:35:54.504Z,5.35
2022-09-04T23:38:27.276Z,4.45
2022-09-04T23:40:57.589Z,6.38
2022-09-04T23:43:38.895Z,9.30
2022-09-04T23:46:08.009Z,5.32
2022-09-04T23:48:37.276Z,5.93
2022-09-04T23:51:19.909Z,4.35
2022-09-04T23:53:52.768Z,7.53
2022-09-04T23:56:22.413Z,4.90
2022-09-04T23:59:07.334Z,5.70
